Aérodrome :
LOGIN :

S'inscrire | Disclaimer

   EN    FR    IT 

 










Légende :    VFR   VFR Marginal   IFR   IFR Intensif   IFR Très Intensif
Visi : 
Plafond : 
>= 8 km
>= 3000ft
5 à 8 km
1000 à 3000 ft
1500m à 5 km
500 à 1000 ft
800 à 1500m
200 à 500 ft
< 800m
< 200 ft
Symboles :   Orages  Brouillard  Fortes neiges  Fortes précipitations  Vent > 20 kt
SIGMETs :   Divers  Orages  Givrage  Turbulence  Onde Orograph.  Cendres Volcan.







- Altitude de l'aérodrome : 13 ft
- Code IATA : GOA


LIMJ - Genoa Cristoforo Colombo

DERNIER METAR :
  • 230420Z 04007KT 9999 -RADZ FEW008 SCT030 BKN060 05/M03 Q0997

METARs EXPIRÉS :
  • 230350Z 04004KT 010V070 9999 -RADZ FEW008 SCT030 BKN060 05/M02 Q0998
  • 230320Z 07008KT 030V100 9999 -RADZ SCT030 BKN060 05/M02 Q0998
  • 230250Z 03007KT 9999 SCT030 BKN060 06/M04 Q0998
  • 230220Z 04007KT 9999 BKN040 06/M05 Q0999
  • 230150Z 04007KT 010V070 9999 BKN050 06/M05 Q0999

TAF TAF LIMJ
Valide du 23 à 00h jusqu'au 24 à 00h UTC


222300Z 2300/2324 01008KT CAVOK
BECMG 2305/2308 RA BKN012 BKN060
PROB40
TEMPO 2318/2324 01015G25KT 4000 RASN
Pas de NOTAMs connus pour ce terrain.



MET'MAP, la Météo Aéronautique d'un coup d'oeil ! - Copyright ORBIFLY Décembre 2007 - Disclaimer

ORBIFLY MET'MAP TEAM :

Programmation & Développement : Alexandra Zaïnal
Conception & Développement : Baudouin d'Aumeries
Co-Programmation & Développement : Marc-Olivier Méhu
Soutien technique & logistique : Manuel Goepfert

Contact : metmap@orbifly.com




SOURCES & CREDITS :

   NOAA